Rogers Spring, Nevada Weather observations

Data are for 10 minute period ending at time listed.
 Day   Time   Solar   Ave.   Ave.  Ave.  Vector  Max.   Baro.   Total    
  of    of     Rad.   Air    Rel.  Wind   Wind   Wind  Press.  Precip.   
Year   Day            Temp.  Hum.  Speed  Dir.   Gust                    
2014   (PST)  Kw/m2    F      %     mph   deg.    mph    mb.     in.     
-------------------------------------------------------------------------
 263   17:50   0.00   69.8    76    0.9   174     3.4   931.5    0.00 
 263   18:00   0.00   69.9    76    1.2   254     2.8   931.4    0.00 
 263   18:10   0.00   69.9    76    1.7   256     3.8   931.5    0.00 
 263   18:20   0.00   69.6    77    2.0   205     3.9   931.6    0.00 
 263   18:30   0.00   68.8    80    1.6   185     2.9   931.6    0.00 
 263   18:40   0.00   68.5    80    0.8   174     2.0   931.5    0.00 
 263   18:50   0.00   68.8    80    1.1    20     2.6   931.4    0.00 
 263   19:00   0.00   68.8    80    1.5   227     2.4   931.5    0.00 
 263   19:10   0.00   68.5    80    1.0   134     2.3   931.5    0.00 
 263   19:20   0.00   68.4    79    0.8   232     1.9   931.7    0.00 
 263   19:30   0.00   67.6    80    0.3   174     1.4   931.6    0.00 
 263   19:40   0.00   67.3    78    1.7   198     3.1   931.6    0.00 
 263   19:50   0.00   66.8    80    1.3   171     2.1   931.7    0.00 
 263   20:00   0.00   66.5    81    1.1   187     2.0   931.7    0.00 
 263   20:10   0.00   66.5    81    0.4   162     2.0   931.7    0.00 
 263   20:20   0.00   65.9    81    0.2   278     1.3   931.7    0.00 
 263   20:30   0.00   65.4    83    0.4   231     1.2   931.7    0.00 
 263   20:40   0.00   65.5    83    0.4    13     2.2   931.8    0.00 
 263   20:50   0.00   65.7    83    0.7    24     3.6   931.8    0.00 
 263   21:00   0.00   66.5    82    1.8   331     4.2   931.8    0.00 
 263   21:10   0.00   66.9    81    2.1   312     4.7   931.8    0.00 
 263   21:20   0.00   67.3    80    1.4   314     4.5   931.9    0.00 
 263   21:30   0.00   67.2    80    0.9   345     3.0   932.0    0.00 
 263   21:40   0.00   67.1    80    0.9   359     3.3   932.1    0.00 
 263   21:50   0.00   67.6    79    2.4    10     5.9   932.2    0.00 
 263   22:00   0.00   68.6    75    4.3   349     8.2   932.2    0.00 
 263   22:10   0.00   68.7    74    5.5   328     9.6   932.2    0.00 
 263   22:20   0.00   68.8    75    6.7   327    11.5   932.2    0.00 
 263   22:30   0.00   68.4    76    5.9   319    10.6   932.2    0.00 
 263   22:40   0.00   68.0    76    5.6   321    10.7   932.1    0.00 
 263   22:50   0.00   67.6    78    5.0   327     8.1   932.2    0.00 
 263   23:00   0.00   67.2    79    4.0   312     6.5   932.2    0.00 
 263   23:10   0.00   66.5    81    2.8   311     5.3   932.3    0.00 
 263   23:20   0.00   65.7    82    1.1   173     2.2   932.4    0.00 
 263   23:30   0.00   64.7    84    1.7    69     3.3   932.4    0.00 
 263   23:40   0.00   65.0    84    2.5   105     4.7   932.4    0.00 
 263   23:50   0.00   63.5    85    2.3   215     4.7   932.4    0.00 
 264    0:00   0.00   63.1    87    2.2   174     3.4   932.6    0.00 
 264    0:10   0.00   65.5    78    3.1   246     4.1   932.8    0.00 
 264    0:20   0.00   65.1    78    3.5   260     6.1   932.8    0.00 
 264    0:30   0.00   66.7    73    3.6   246     7.5   932.7    0.00 
 264    0:40   0.00   65.4    77    1.9   248     4.7   932.7    0.00 
 264    0:50   0.00   65.1    77    2.3   341     4.8   932.8    0.00 
 264    1:00   0.00   66.2    74    3.2   284     7.7   932.6    0.00 
 264    1:10   0.00   65.7    76    2.6   240     4.9   932.5    0.00 
 264    1:20   0.00   64.7    79    1.7   271     4.7   932.6    0.00 
 264    1:30   0.00   65.7    77    3.6   316     8.5   932.5    0.00 
 264    1:40   0.00   65.2    78    2.8   325     6.5   932.4    0.00 
 264    1:50   0.00   64.6    80    4.3   325     7.7   932.3    0.00 
 264    2:00   0.00   64.8    79    5.0   319     9.1   932.3    0.00 
 264    2:10   0.00   64.5    79    6.0   324     9.3   932.5    0.00 
 264    2:20   0.00   64.8    78    6.0   324     9.9   932.5    0.00 
 264    2:30   0.00   65.0    77    6.2   324    10.9   932.5    0.00 
 264    2:40   0.00   64.7    78    5.8   328     9.9   932.6    0.00 
 264    2:50   0.00   65.2    76    6.2   329    11.2   932.6    0.00 
 264    3:00   0.00   65.0    76    5.3   328     9.5   932.6    0.00 
 264    3:10   0.00   65.0    76    4.6   321     6.9   932.6    0.00 
 264    3:20   0.00   64.5    77    4.2   312     8.1   932.6    0.00 
 264    3:30   0.00   64.4    78    5.4   317    10.2   932.5    0.00 
 264    3:40   0.00   64.4    78    5.1   313     8.3   932.6    0.00 
 264    3:50   0.00   63.8    80    3.6   314     6.5   932.8    0.00 
 264    4:00   0.00   63.9    80    1.9   300     5.6   933.0    0.00 
 264    4:10   0.00   63.9    79    3.4   310     7.2   932.9    0.00 
 264    4:20   0.00   63.8    80    3.8   328     6.9   932.9    0.00 
 264    4:30   0.00   63.9    79    4.1   322     7.8   932.9    0.00 
 264    4:40   0.00   63.8    78    3.7   325     6.1   933.1    0.00 
 264    4:50   0.00   64.2    77    3.7   320     8.3   933.1    0.00 
 264    5:00   0.00   64.0    77    3.4   308     5.5   933.2    0.00 
 264    5:10   0.00   63.6    78    3.4   309     5.6   933.2    0.00 
 264    5:20   0.00   63.5    79    4.1   318     7.7   933.2    0.00 
 264    5:30   0.00   63.5    79    3.5   316     6.4   933.2    0.00 
 264    5:40   0.01   62.9    80    2.6   300     5.3   933.4    0.00 
 264    5:50   0.01   62.4    82    1.7   321     3.3   933.4    0.00 
 264    6:00   0.03   62.7    82    2.1   307     4.2   933.5    0.00 
 264    6:10   0.07   63.5    81    1.2   291     3.5   933.6    0.00 
 264    6:20   0.08   65.1    78    2.8   322     6.5   933.6    0.00 
 264    6:30   0.07   65.4    76    3.7   307     6.6   933.9    0.00 
 264    6:40   0.19   67.2    74    4.5   316     8.5   934.0    0.00 
 264    6:50   0.26   68.8    71    6.4   315    11.7   934.1    0.00 
 264    7:00   0.19   69.5    69    6.6   307    11.1   934.1    0.00 
 264    7:10   0.18   69.9    68    5.4   332    11.8   934.1    0.00 
 264    7:20   0.26   70.9    67    4.8   306     8.3   934.1    0.00 
 264    7:30   0.32   72.8    64    5.6   320    10.1   934.1    0.00 
 264    7:40   0.22   72.6    63    5.7   307     9.3   934.2    0.00 
 264    7:50   0.33   73.2    62    5.7   302     8.6   934.3    0.00 
 264    8:00   0.42   75.0    60    4.9   303     9.1   934.3    0.00 
 264    8:10   0.44   76.7    56    6.2   304    10.4   934.4    0.00 
 264    8:20   0.39   76.3    55    6.0   321    10.7   934.5    0.00 
 264    8:30   0.49   77.2    53    6.3   312     9.4   934.4    0.00 
 264    8:40   0.45   77.8    52    4.9   307     8.9   934.4    0.00 
 264    8:50   0.51   78.7    50    5.4   305    10.2   934.5    0.00 
 264    9:00   0.42   79.8    47    2.7   316     7.7   934.4    0.00 
 264    9:10   0.32   79.8    47    2.0   314     4.5   934.3    0.00 
 264    9:20   0.39   80.0    46    0.6   317     2.2   934.3    0.00 
 264    9:30   0.47   81.1    46    4.5   290     8.5   934.3    0.00 
 264    9:40   0.65   81.4    45    4.4   284     8.8   934.3    0.00 
 264    9:50   0.59   82.1    44    4.9   289     9.0   934.3    0.00 
 264   10:00   0.72   83.1    43    3.9   260     7.8   934.2    0.00 
 264   10:10   0.74   83.4    41    3.5   247     6.9   934.2    0.00 
 264   10:20   0.75   84.9    39    2.7   202     7.2   934.0    0.00 
 264   10:30   0.76   85.9    37    3.3   177     7.0   933.9    0.00 
 264   10:40   0.77   86.2    36    3.2   193     5.8   933.9    0.00 
 264   10:50   0.78   86.4    34    2.8   161     6.0   933.8    0.00 
 264   11:00   0.79   87.1    33    2.6   126     5.8   933.7    0.00 
 264   11:10   0.80   87.1    32    2.8   134     6.4   933.7    0.00 
 264   11:20   0.80   87.0    32    3.2   207     7.1   933.6    0.00 
 264   11:30   0.80   87.0    33    4.0   224    10.6   933.5    0.00 
 264   11:40   0.81   87.6    32    4.5   176     9.9   933.4    0.00 
 264   11:50   0.80   87.4    32    3.6   203     9.1   933.2    0.00 
 264   12:00   0.80   87.4    32    3.5   206     9.3   933.0    0.00 
 264   12:10   0.80   88.4    30    4.3   170     9.6   932.8    0.00 
 264   12:20   0.80   88.5    30    4.9   186    11.0   932.6    0.00 
 264   12:30   0.79   88.4    31    5.6   171    11.0   932.4    0.00 
 264   12:40   0.78   88.6    31    6.0   199    11.6   932.2    0.00 
 264   12:50   0.78   88.9    31    6.0   203    13.5   932.1    0.00 
 264   13:00   0.77   90.4    29    5.7   187    12.9   931.9    0.00 
 264   13:10   0.75   90.1    29    7.2   201    14.8   931.8    0.00 
 264   13:20   0.74   90.6    27    7.3   195    13.7   931.6    0.00 
 264   13:30   0.72   90.9    25    6.1   201    12.3   931.6    0.00 
 264   13:40   0.70   91.4    24    6.2   209    12.1   931.5    0.00 
 264   13:50   0.69   91.7    22    5.2   191    10.7   931.4    0.00 
 264   14:00   0.66   92.2    23    6.4   207    11.5   931.4    0.00 
 264   14:10   0.64   92.1    23    5.5   203     9.7   931.3    0.00 
 264   14:20   0.61   92.5    22    6.0   184    13.7   931.3    0.00 
 264   14:30   0.59   92.3    22    6.1   206    11.8   931.3    0.00 
 264   14:40   0.45   91.9    21    6.6   179    12.8   931.2    0.00 
 264   14:50   0.54   92.7    19    5.8   205    12.5   931.1    0.00 
 264   15:00   0.51   92.5    18    7.7   197    13.4   930.9    0.00 
 264   15:10   0.48   92.6    17    6.3   187    12.0   930.9    0.00 
 264   15:20   0.45   92.6    16    6.4   179    12.3   930.9    0.00 
 264   15:30   0.41   92.5    17    6.9   184    13.6   930.9    0.00 
 264   15:40   0.38   92.4    17    6.5   183    12.6   930.8    0.00 
 264   15:50   0.34   91.8    18    6.4   182    11.9   930.8    0.00 
 264   16:00   0.31   91.8    18    6.7   174    13.8   930.5    0.00 
 264   16:10   0.28   90.9    18    7.4   164    13.6   930.6    0.00 
 264   16:20   0.24   90.9    18    5.0   172     9.2   930.6    0.00 
 264   16:30   0.21   90.7    18    4.9   169     9.6   930.5    0.00 
 264   16:40   0.18   90.3    19    5.3   172     9.6   930.5    0.00 
 264   16:50   0.14   89.7    20    4.8   180    10.1   930.5    0.00 
 264   17:00   0.11   89.0    20    6.0   168    11.2   930.6    0.00 
 264   17:10   0.09   88.2    21    4.2   170     8.8   930.6    0.00 
 264   17:20   0.05   87.3    21    3.5   167     7.5   930.6    0.00 
 264   17:30   0.02   85.5    22    3.1   160     5.4   930.7    0.00 
 264   17:40   0.01   83.4    24    2.1   152     5.3   930.8    0.00 

Return to Rogers Spring graphs page.


Western Regional Climate Center,wrcc@dri.edu